Time;durP1;ratioP1;P1;durP2;ratioP2;P2;SDS_P1;SDS_P2;PMS_P1;PMS_P2;Temp;Humidity;BMP_temperature;BMP_pressure;BME280_temperature;BME280_humidity;BME280_pressure;Samples;Min_cycle;Max_cycle;Signal;HPM_P1;HPM_P2
2021/08/02 00:00:16;;;;;;;2.37;0.70;;;20.10;63.60;;;;;;2221393;57;21016;-65
2021/08/02 00:03:00;;;;;;;1.58;0.68;;;20.10;63.60;;;;;;2220676;57;21010;-65
2021/08/02 00:05:27;;;;;;;1.60;0.70;;;20.10;63.60;;;;;;2228631;57;21007;-66
2021/08/02 00:07:57;;;;;;;1.10;0.50;;;20.10;63.70;;;;;;2226625;57;20987;-65
2021/08/02 00:10:36;;;;;;;1.58;0.70;;;20.10;63.80;;;;;;2440325;56;21748;-65
2021/08/02 00:13:31;;;;;;;1.85;0.80;;;20.10;63.80;;;;;;2229437;57;21201;-65
2021/08/02 00:16:00;;;;;;;1.55;0.55;;;20.10;63.80;;;;;;2232690;57;21003;-65
2021/08/02 00:18:27;;;;;;;1.48;0.65;;;20.10;64.00;;;;;;2225253;57;21920;-65
2021/08/02 00:20:54;;;;;;;1.35;0.50;;;20.10;64.00;;;;;;2233674;57;20987;-65
2021/08/02 00:23:34;;;;;;;0.98;0.50;;;20.10;64.00;;;;;;2209980;57;21207;-65
2021/08/02 00:26:02;;;;;;;1.02;0.52;;;20.10;64.00;;;;;;2226093;57;20994;-65
2021/08/02 00:28:29;;;;;;;2.17;0.65;;;20.10;64.00;;;;;;2223534;57;21146;-66
2021/08/02 00:30:56;;;;;;;2.05;0.77;;;20.10;64.00;;;;;;2219459;57;20997;-65
2021/08/02 00:33:23;;;;;;;1.10;0.55;;;20.10;64.00;;;;;;2203328;57;21006;-65
2021/08/02 00:39:25;;;;;;;2.45;0.80;;;20.10;63.80;;;;;;2420025;56;20963;-65
2021/08/02 00:44:55;;;;;;;1.50;0.68;;;20.00;63.80;;;;;;2220412;57;21079;-65
2021/08/02 00:47:27;;;;;;;1.05;0.50;;;20.00;63.40;;;;;;2432320;56;21003;-65
2021/08/02 00:49:55;;;;;;;1.25;0.60;;;20.00;63.60;;;;;;2217029;57;21014;-64
2021/08/02 00:52:26;;;;;;;1.73;0.70;;;20.00;63.60;;;;;;2310717;56;21817;-66
2021/08/02 00:54:52;;;;;;;1.80;0.68;;;20.00;63.60;;;;;;2229181;57;21863;-65
2021/08/02 00:57:24;;;;;;;1.52;0.68;;;19.90;63.60;;;;;;2229359;57;21499;-64
2021/08/02 00:59:51;;;;;;;1.50;0.57;;;19.90;63.60;;;;;;2415813;56;20983;-65
2021/08/02 01:02:18;;;;;;;2.83;0.80;;;19.90;63.60;;;;;;2229682;57;20958;-65
2021/08/02 01:04:44;;;;;;;2.08;0.70;;;19.90;63.60;;;;;;2230546;57;20987;-64
2021/08/02 01:07:11;;;;;;;2.28;0.90;;;19.80;63.50;;;;;;2232628;57;21881;-65
2021/08/02 01:09:37;;;;;;;1.92;0.85;;;19.80;63.50;;;;;;2228633;57;20958;-66
2021/08/02 01:12:07;;;;;;;1.80;0.70;;;19.80;63.50;;;;;;2441443;56;20998;-65
2021/08/02 01:14:33;;;;;;;1.58;0.70;;;19.70;63.40;;;;;;2439804;56;21466;-65
2021/08/02 01:17:00;;;;;;;2.55;1.05;;;19.70;63.30;;;;;;2230035;57;21042;-65
2021/08/02 01:19:26;;;;;;;1.62;0.70;;;19.70;63.30;;;;;;2227188;57;21019;-65
2021/08/02 01:21:52;;;;;;;2.17;0.70;;;19.70;63.30;;;;;;2225942;57;20950;-64
2021/08/02 01:24:19;;;;;;;1.48;0.70;;;19.60;63.20;;;;;;2222905;57;21620;-66
2021/08/02 01:30:12;;;;;;;1.60;0.70;;;19.60;63.10;;;;;;2197393;57;21441;-65
2021/08/02 01:32:39;;;;;;;1.77;0.70;;;19.60;62.70;;;;;;2416379;56;21054;-64
2021/08/02 01:35:06;;;;;;;1.30;0.70;;;19.50;62.90;;;;;;2228226;57;20998;-65
2021/08/02 01:37:32;;;;;;;1.30;0.60;;;19.50;63.00;;;;;;2225907;57;21383;-64
2021/08/02 01:39:58;;;;;;;1.83;0.80;;;19.50;63.10;;;;;;2223938;57;20994;-66
2021/08/02 01:42:24;;;;;;;1.15;0.60;;;19.40;63.00;;;;;;2232287;56;21162;-65
2021/08/02 01:44:52;;;;;;;2.00;0.90;;;19.40;63.10;;;;;;2226251;57;21005;-65
2021/08/02 01:47:40;;;;;;;2.17;0.88;;;19.40;63.10;;;;;;2222163;57;20962;-65
2021/08/02 01:50:27;;;;;;;1.40;0.60;;;19.40;63.00;;;;;;2224527;57;21069;-65
2021/08/02 01:54:51;;;;;;;1.95;0.60;;;19.40;63.10;;;;;;2187907;57;21073;-65
2021/08/02 01:57:34;;;;;;;1.62;0.65;;;19.30;62.90;;;;;;2185633;57;20989;-65
2021/08/02 02:00:56;;;;;;;1.70;0.70;;;19.30;63.10;;;;;;2217415;58;20991;-65
2021/08/02 02:03:24;;;;;;;1.10;0.50;;;19.30;63.20;;;;;;2231517;57;21454;-66
2021/08/02 02:06:06;;;;;;;1.77;0.82;;;19.30;63.40;;;;;;2224077;57;21051;-64
2021/08/02 02:08:40;;;;;;;1.80;0.80;;;19.30;63.50;;;;;;2229054;57;21027;-64
2021/08/02 02:11:06;;;;;;;1.30;0.60;;;19.30;63.60;;;;;;2226315;57;20995;-66
2021/08/02 02:13:37;;;;;;;1.50;0.73;;;19.20;63.50;;;;;;2222909;57;20979;-65
2021/08/02 02:16:03;;;;;;;1.85;0.77;;;19.30;63.70;;;;;;2209577;57;21022;-65
2021/08/02 02:18:31;;;;;;;1.48;0.60;;;19.20;63.60;;;;;;2220526;57;21035;-65
2021/08/02 02:20:59;;;;;;;1.83;0.90;;;19.20;63.70;;;;;;2224691;57;20958;-65
2021/08/02 02:23:28;;;;;;;1.58;0.70;;;19.20;63.70;;;;;;2228266;57;21076;-64
2021/08/02 02:25:55;;;;;;;2.05;0.90;;;19.20;63.70;;;;;;2439276;56;21031;-65
2021/08/02 02:28:22;;;;;;;1.60;0.68;;;19.20;63.70;;;;;;2230115;57;21113;-65
2021/08/02 02:30:48;;;;;;;2.20;0.80;;;19.20;63.70;;;;;;2225776;57;21151;-64
2021/08/02 02:33:16;;;;;;;1.55;0.77;;;19.20;63.70;;;;;;2230769;57;20991;-65
2021/08/02 02:35:43;;;;;;;2.15;0.82;;;19.20;63.60;;;;;;2227433;57;20995;-65
2021/08/02 02:38:10;;;;;;;1.58;0.75;;;19.20;63.60;;;;;;2229583;57;21017;-64
2021/08/02 02:40:38;;;;;;;1.58;0.70;;;19.20;63.60;;;;;;2225059;57;21141;-66
2021/08/02 02:43:05;;;;;;;1.60;0.70;;;19.20;63.70;;;;;;2233339;57;20995;-67
2021/08/02 02:45:32;;;;;;;4.65;0.98;;;19.10;63.60;;;;;;2440223;56;21164;-65
2021/08/02 02:47:59;;;;;;;4.07;1.10;;;19.10;63.60;;;;;;2198551;57;20972;-64
2021/08/02 02:50:25;;;;;;;2.20;0.80;;;19.10;63.50;;;;;;2223868;57;21095;-67
2021/08/02 02:52:52;;;;;;;2.92;0.88;;;19.10;63.50;;;;;;2436140;56;20994;-65
2021/08/02 02:55:19;;;;;;;2.05;0.80;;;19.10;63.50;;;;;;2223336;57;21848;-66
2021/08/02 02:57:46;;;;;;;2.47;0.82;;;19.10;63.50;;;;;;2226018;57;21027;-66
2021/08/02 03:00:14;;;;;;;1.12;0.60;;;19.10;63.50;;;;;;2228702;57;21008;-64
2021/08/02 03:02:40;;;;;;;3.10;1.08;;;19.10;63.50;;;;;;2225447;57;21108;-65
2021/08/02 03:05:08;;;;;;;1.58;0.62;;;19.10;63.60;;;;;;2224690;57;21812;-65
2021/08/02 03:07:35;;;;;;;2.10;0.90;;;19.10;63.50;;;;;;2209476;57;21080;-64
2021/08/02 03:10:04;;;;;;;1.55;0.70;;;19.10;63.50;;;;;;2227277;57;21039;-65
2021/08/02 03:12:34;;;;;;;1.98;0.93;;;19.10;63.50;;;;;;2227736;57;20979;-66
2021/08/02 03:15:01;;;;;;;1.95;0.80;;;19.10;63.50;;;;;;2220834;57;20977;-65
2021/08/02 03:17:27;;;;;;;2.20;0.98;;;19.10;63.50;;;;;;2304916;56;21031;-65
2021/08/02 03:19:54;;;;;;;2.30;0.80;;;19.00;63.40;;;;;;2439779;56;21015;-65
2021/08/02 03:23:03;;;;;;;2.00;0.70;;;19.00;63.40;;;;;;2174391;57;1688406;-65
2021/08/02 03:26:16;;;;;;;2.05;0.90;;;19.00;63.20;;;;;;2228009;57;21111;-65
2021/08/02 03:30:17;;;;;;;1.67;0.80;;;19.00;63.10;;;;;;2218096;57;21829;-65
2021/08/02 03:32:45;;;;;;;2.55;0.90;;;19.00;63.30;;;;;;2223823;57;21005;-65
2021/08/02 03:35:12;;;;;;;1.70;0.70;;;18.90;63.20;;;;;;2384655;56;20994;-64
2021/08/02 03:37:39;;;;;;;2.47;0.80;;;18.90;63.20;;;;;;2439388;56;21491;-66
2021/08/02 03:40:05;;;;;;;1.48;0.70;;;18.90;63.30;;;;;;2227628;57;21931;-66
2021/08/02 03:42:35;;;;;;;1.52;0.65;;;18.90;63.40;;;;;;2226196;57;20991;-64
2021/08/02 03:45:02;;;;;;;1.62;0.80;;;18.80;63.30;;;;;;2438727;56;21011;-64
2021/08/02 03:47:30;;;;;;;1.52;0.73;;;18.80;63.30;;;;;;2219647;57;21425;-64
2021/08/02 03:49:57;;;;;;;2.67;0.90;;;18.80;63.30;;;;;;2414186;56;21010;-65
2021/08/02 03:52:23;;;;;;;2.40;1.00;;;18.70;63.30;;;;;;2229626;57;21027;-66
2021/08/02 03:54:52;;;;;;;1.90;0.90;;;18.70;63.30;;;;;;2401699;56;21039;-64
2021/08/02 03:57:19;;;;;;;2.35;0.90;;;18.70;63.30;;;;;;2213341;57;20944;-65
2021/08/02 03:59:46;;;;;;;2.05;0.93;;;18.70;63.40;;;;;;2351109;56;21090;-63
2021/08/02 04:02:14;;;;;;;2.30;0.93;;;18.70;63.40;;;;;;2198150;57;21054;-65
2021/08/02 04:04:43;;;;;;;2.00;0.93;;;18.60;63.40;;;;;;2222937;57;21101;-65
2021/08/02 04:07:55;;;;;;;2.87;1.00;;;18.60;63.40;;;;;;2224111;57;20992;-65
2021/08/02 04:10:21;;;;;;;2.55;1.02;;;18.60;63.20;;;;;;2225788;56;21063;-64
2021/08/02 04:12:47;;;;;;;2.20;0.82;;;18.50;63.20;;;;;;2211424;57;21491;-65
2021/08/02 04:15:15;;;;;;;2.45;1.20;;;18.50;63.30;;;;;;2222312;57;21139;-64
2021/08/02 04:17:41;;;;;;;2.03;0.88;;;18.50;63.30;;;;;;2208482;57;21060;-65
2021/08/02 04:20:09;;;;;;;2.50;1.05;;;18.50;63.40;;;;;;2441017;56;21055;-64
2021/08/02 04:22:38;;;;;;;1.85;0.70;;;18.50;63.50;;;;;;2223021;57;21019;-64
2021/08/02 04:25:05;;;;;;;3.78;1.20;;;18.40;63.50;;;;;;2237271;56;20963;-63
2021/08/02 04:27:31;;;;;;;1.45;0.80;;;18.40;63.50;;;;;;2219349;57;21069;-65
2021/08/02 04:29:58;;;;;;;2.78;1.05;;;18.40;63.50;;;;;;2260764;56;21063;-66
2021/08/02 04:32:24;;;;;;;2.20;0.90;;;18.40;63.50;;;;;;2210162;57;20981;-65
2021/08/02 04:34:51;;;;;;;1.95;0.98;;;18.40;63.60;;;;;;2356141;56;20953;-66
2021/08/02 04:37:17;;;;;;;3.03;1.12;;;18.40;63.60;;;;;;2227264;57;20991;-64
2021/08/02 04:39:44;;;;;;;2.03;1.00;;;18.40;63.60;;;;;;2227903;57;21030;-64
2021/08/02 04:42:11;;;;;;;2.05;0.82;;;18.40;63.70;;;;;;2208980;57;20987;-65
2021/08/02 04:44:37;;;;;;;1.42;0.70;;;18.40;63.80;;;;;;2236720;56;21779;-64
2021/08/02 04:47:04;;;;;;;1.52;0.70;;;18.30;63.70;;;;;;2357801;56;21038;-65
2021/08/02 04:49:31;;;;;;;2.05;0.85;;;18.40;63.80;;;;;;2402452;56;21925;-66
2021/08/02 04:51:59;;;;;;;2.22;0.90;;;18.40;63.80;;;;;;2226986;57;21127;-64
2021/08/02 04:54:25;;;;;;;2.22;0.90;;;18.30;63.70;;;;;;2225886;57;20970;-65
2021/08/02 04:56:53;;;;;;;3.83;0.80;;;18.30;63.70;;;;;;2222514;57;21048;-64
2021/08/02 04:59:19;;;;;;;1.85;1.00;;;18.30;63.80;;;;;;2219765;57;21415;-65
2021/08/02 05:01:49;;;;;;;2.42;1.00;;;18.30;63.80;;;;;;2225794;57;21011;-65
2021/08/02 05:04:15;;;;;;;3.60;0.80;;;18.30;63.80;;;;;;2199192;57;21054;-64
2021/08/02 05:06:42;;;;;;;2.20;0.90;;;18.30;63.90;;;;;;2234964;57;21870;-64
2021/08/02 05:09:10;;;;;;;2.20;0.98;;;18.30;63.90;;;;;;2214236;57;21800;-65
2021/08/02 05:11:36;;;;;;;1.62;0.70;;;18.20;63.90;;;;;;2320251;57;21046;-64
2021/08/02 05:14:02;;;;;;;2.90;0.90;;;18.20;64.10;;;;;;2225693;57;21039;-66
2021/08/02 05:16:29;;;;;;;1.85;0.80;;;18.20;64.00;;;;;;2225785;57;21055;-64
2021/08/02 05:18:56;;;;;;;2.78;0.93;;;18.20;64.10;;;;;;2232652;57;20974;-63
2021/08/02 05:21:23;;;;;;;1.37;0.70;;;18.20;64.20;;;;;;2226021;57;21487;-65
2021/08/02 05:23:49;;;;;;;2.50;0.90;;;18.20;64.30;;;;;;2347951;56;21030;-64
2021/08/02 05:26:16;;;;;;;2.35;1.00;;;18.20;64.40;;;;;;2226516;57;21010;-64
2021/08/02 05:28:42;;;;;;;2.58;1.20;;;18.30;64.70;;;;;;2229244;57;20967;-64
2021/08/02 05:31:08;;;;;;;3.10;0.95;;;18.30;64.90;;;;;;2226758;57;20999;-65
2021/08/02 05:33:35;;;;;;;1.65;0.80;;;18.30;65.00;;;;;;2222685;57;21055;-66
2021/08/02 05:36:03;;;;;;;2.10;1.00;;;18.40;65.30;;;;;;2224824;57;21015;-65
2021/08/02 05:38:32;;;;;;;2.65;1.10;;;18.40;65.30;;;;;;2422604;56;21538;-65
2021/08/02 05:40:58;;;;;;;2.60;1.15;;;18.50;65.40;;;;;;2229277;57;20963;-65
2021/08/02 05:43:29;;;;;;;2.20;1.05;;;18.50;65.40;;;;;;2433482;56;21023;-66
2021/08/02 05:45:55;;;;;;;1.62;0.85;;;18.60;65.60;;;;;;2225240;57;21003;-67
2021/08/02 05:48:23;;;;;;;2.67;1.08;;;18.60;65.60;;;;;;2207151;57;21042;-65
2021/08/02 05:50:50;;;;;;;2.12;0.95;;;18.70;65.70;;;;;;2224555;57;21007;-65
2021/08/02 05:53:18;;;;;;;2.50;1.12;;;18.80;65.90;;;;;;2223566;57;21030;-65
2021/08/02 05:55:44;;;;;;;2.33;1.00;;;18.80;65.90;;;;;;2230152;57;21070;-67
2021/08/02 05:58:15;;;;;;;2.00;0.90;;;18.90;65.90;;;;;;2220793;57;20995;-65
2021/08/02 06:00:42;;;;;;;2.78;1.20;;;19.00;66.00;;;;;;2221166;57;20995;-65
2021/08/02 06:03:08;;;;;;;2.45;1.15;;;19.10;66.00;;;;;;2219973;57;21148;-66
2021/08/02 06:05:35;;;;;;;2.45;1.15;;;19.10;65.90;;;;;;2226582;57;21074;-65
2021/08/02 06:08:01;;;;;;;2.58;1.17;;;19.20;65.90;;;;;;2215502;57;20986;-65
2021/08/02 06:10:29;;;;;;;2.87;1.35;;;19.30;65.80;;;;;;2438883;56;21043;-64
2021/08/02 06:12:55;;;;;;;2.45;1.20;;;19.30;65.70;;;;;;2223869;57;20989;-65
2021/08/02 06:15:22;;;;;;;3.08;1.20;;;19.40;65.60;;;;;;2222315;57;20963;-67
2021/08/02 06:17:48;;;;;;;2.30;1.12;;;19.50;65.50;;;;;;2222109;57;21078;-66
2021/08/02 06:20:15;;;;;;;3.42;1.30;;;19.50;65.40;;;;;;2212918;57;21063;-65
2021/08/02 06:22:41;;;;;;;3.17;1.70;;;19.50;65.40;;;;;;2226363;57;20965;-66
2021/08/02 06:25:08;;;;;;;3.30;1.45;;;19.60;65.40;;;;;;2228937;57;20955;-66
2021/08/02 06:27:36;;;;;;;3.53;1.33;;;19.60;65.50;;;;;;2224753;57;21146;-66
2021/08/02 06:30:04;;;;;;;9.23;1.95;;;19.70;65.70;;;;;;2441340;56;21056;-67
2021/08/02 06:32:32;;;;;;;2.65;1.33;;;19.80;65.80;;;;;;2224584;57;20957;-66
2021/08/02 06:35:00;;;;;;;2.97;1.30;;;19.80;65.70;;;;;;2222767;57;21019;-66
2021/08/02 06:37:27;;;;;;;3.75;1.40;;;19.90;65.60;;;;;;2225678;57;20962;-65
2021/08/02 06:39:53;;;;;;;3.55;1.45;;;20.00;65.70;;;;;;2230848;57;20991;-65
2021/08/02 06:42:19;;;;;;;4.45;1.20;;;20.10;65.70;;;;;;2212549;57;20995;-65
2021/08/02 06:44:46;;;;;;;3.12;1.50;;;20.20;65.70;;;;;;2438748;56;20974;-65
2021/08/02 06:47:12;;;;;;;3.80;1.45;;;20.30;65.60;;;;;;2438009;56;21578;-67
2021/08/02 06:49:44;;;;;;;2.30;1.00;;;20.30;65.20;;;;;;2225315;57;21015;-66
2021/08/02 06:52:16;;;;;;;2.53;1.25;;;20.40;65.30;;;;;;2229161;57;21019;-65
2021/08/02 06:54:42;;;;;;;2.08;1.08;;;20.50;65.20;;;;;;2225772;57;21060;-65
2021/08/02 06:57:09;;;;;;;2.83;1.33;;;20.50;64.90;;;;;;2220285;57;21067;-65
2021/08/02 06:59:35;;;;;;;2.72;1.40;;;20.60;64.80;;;;;;2226751;57;21034;-65
2021/08/02 07:02:02;;;;;;;3.08;1.30;;;20.60;64.70;;;;;;2267185;56;21005;-67
2021/08/02 07:04:28;;;;;;;3.17;1.30;;;20.70;64.60;;;;;;2226646;57;21058;-65
2021/08/02 07:06:54;;;;;;;5.30;1.85;;;20.70;64.50;;;;;;2299127;56;21031;-66
2021/08/02 07:09:21;;;;;;;3.60;1.20;;;20.80;64.50;;;;;;2206146;57;21038;-65
2021/08/02 07:11:47;;;;;;;3.20;1.30;;;20.90;64.60;;;;;;2229057;57;21007;-66
2021/08/02 07:14:15;;;;;;;3.03;1.40;;;20.90;64.50;;;;;;2225964;57;21051;-66
2021/08/02 07:16:41;;;;;;;3.30;1.20;;;21.00;64.60;;;;;;2202254;57;22021;-68
2021/08/02 07:19:08;;;;;;;1.90;0.85;;;21.00;64.50;;;;;;2226807;57;21952;-67
2021/08/02 07:21:35;;;;;;;2.92;1.12;;;21.10;64.60;;;;;;2215254;57;20962;-67
2021/08/02 07:24:02;;;;;;;2.50;1.27;;;21.10;64.50;;;;;;2209735;57;20946;-66
2021/08/02 07:26:28;;;;;;;3.85;1.67;;;21.20;64.30;;;;;;2230924;57;21046;-66
2021/08/02 07:28:58;;;;;;;3.67;1.40;;;21.20;63.90;;;;;;2225722;57;20968;-67
2021/08/02 07:31:27;;;;;;;3.30;1.40;;;21.30;63.90;;;;;;2226943;57;20958;-65
2021/08/02 07:33:55;;;;;;;2.60;1.40;;;21.30;63.60;;;;;;2221213;57;21050;-65
2021/08/02 07:36:22;;;;;;;3.03;1.40;;;21.40;63.90;;;;;;2224205;57;21011;-65
2021/08/02 07:38:48;;;;;;;2.50;1.20;;;21.40;63.80;;;;;;2209305;57;21178;-66
2021/08/02 07:41:15;;;;;;;2.60;1.12;;;21.40;63.80;;;;;;2439435;56;21115;-65
2021/08/02 07:43:41;;;;;;;2.83;1.52;;;21.50;63.80;;;;;;2206166;57;20955;-68
2021/08/02 07:46:07;;;;;;;3.55;1.33;;;21.50;63.60;;;;;;2215315;57;20913;-65
2021/08/02 07:48:34;;;;;;;2.78;1.20;;;21.60;63.70;;;;;;2230238;57;21467;-65
2021/08/02 07:51:02;;;;;;;2.30;0.98;;;21.60;63.70;;;;;;2226118;57;20974;-67
2021/08/02 07:53:29;;;;;;;2.60;1.25;;;21.60;63.80;;;;;;2227187;57;20974;-66
2021/08/02 07:55:55;;;;;;;2.58;1.30;;;21.70;64.30;;;;;;2225536;57;21059;-66
2021/08/02 07:58:21;;;;;;;2.97;1.30;;;21.70;63.50;;;;;;2229733;57;21031;-68
2021/08/02 08:00:48;;;;;;;3.80;1.60;;;21.70;63.40;;;;;;2229352;57;20959;-65
2021/08/02 08:03:15;;;;;;;3.80;1.40;;;21.80;63.50;;;;;;2224610;57;21022;-66
2021/08/02 08:05:41;;;;;;;2.75;1.30;;;21.80;63.30;;;;;;2228283;57;21050;-65
2021/08/02 08:08:08;;;;;;;3.47;1.55;;;21.80;63.20;;;;;;2226079;57;21028;-66
2021/08/02 08:10:34;;;;;;;2.58;1.25;;;21.90;63.20;;;;;;2229406;57;21019;-66
2021/08/02 08:13:00;;;;;;;3.12;1.40;;;21.90;63.20;;;;;;2226851;57;20991;-66
2021/08/02 08:15:44;;;;;;;3.25;1.05;;;21.90;63.10;;;;;;2426715;56;20966;-65
2021/08/02 08:18:11;;;;;;;2.85;1.27;;;22.00;62.60;;;;;;2207644;57;21599;-66
2021/08/02 08:20:37;;;;;;;2.53;1.02;;;22.00;63.00;;;;;;2301717;56;20963;-67
2021/08/02 08:23:04;;;;;;;4.18;1.45;;;22.10;63.10;;;;;;2226225;57;20990;-65
2021/08/02 08:25:33;;;;;;;2.35;1.10;;;22.10;63.10;;;;;;2287917;56;21031;-65
2021/08/02 08:28:00;;;;;;;2.53;1.33;;;22.10;63.00;;;;;;2438272;56;21119;-65
2021/08/02 08:30:27;;;;;;;3.03;1.30;;;22.20;63.10;;;;;;2230717;57;21071;-65
2021/08/02 08:32:54;;;;;;;4.97;1.27;;;22.30;63.20;;;;;;2212991;57;21010;-65
2021/08/02 08:35:21;;;;;;;3.12;1.33;;;22.30;63.30;;;;;;2229977;57;20979;-66
2021/08/02 08:37:48;;;;;;;2.50;1.27;;;22.40;63.10;;;;;;2224398;57;21003;-67
2021/08/02 08:40:14;;;;;;;4.65;1.40;;;22.40;62.50;;;;;;2409760;56;21042;-67
2021/08/02 08:42:41;;;;;;;3.80;1.60;;;22.40;62.00;;;;;;2228530;57;20982;-66
2021/08/02 08:45:09;;;;;;;2.50;1.20;;;22.50;61.70;;;;;;2225922;57;21050;-65
2021/08/02 08:47:38;;;;;;;2.40;1.20;;;22.50;61.90;;;;;;2224188;57;21015;-67
2021/08/02 08:50:08;;;;;;;2.92;1.30;;;22.50;61.90;;;;;;2227770;57;21022;-65
2021/08/02 08:52:35;;;;;;;2.28;1.17;;;22.50;62.00;;;;;;2304101;56;21472;-67
2021/08/02 08:55:08;;;;;;;3.78;1.15;;;22.60;62.50;;;;;;2227520;57;21414;-65
2021/08/02 08:57:34;;;;;;;3.45;1.50;;;22.70;62.50;;;;;;2223924;57;21843;-65
2021/08/02 09:00:01;;;;;;;2.30;1.10;;;22.70;62.40;;;;;;2215584;57;21062;-65
2021/08/02 09:02:29;;;;;;;2.17;1.00;;;22.80;62.50;;;;;;2226760;57;20982;-66
2021/08/02 09:04:57;;;;;;;2.40;1.10;;;22.80;62.50;;;;;;2434031;56;20982;-65
2021/08/02 09:07:44;;;;;;;2.97;1.30;;;22.90;62.50;;;;;;2265691;56;20986;-67
2021/08/02 09:10:12;;;;;;;3.70;1.33;;;23.00;61.70;;;;;;2231244;57;21043;-66
2021/08/02 09:12:52;;;;;;;3.17;1.15;;;23.10;62.20;;;;;;2226598;57;20983;-65
2021/08/02 09:15:40;;;;;;;3.53;1.40;;;23.10;61.40;;;;;;2225869;57;20975;-67
2021/08/02 09:18:09;;;;;;;2.92;1.02;;;23.20;61.80;;;;;;2224125;57;20994;-67
2021/08/02 09:20:36;;;;;;;2.03;0.98;;;23.20;61.40;;;;;;2209306;57;21077;-66
2021/08/02 09:23:13;;;;;;;2.67;1.33;;;23.30;61.60;;;;;;2223394;57;21098;-68
2021/08/02 09:26:01;;;;;;;2.35;1.08;;;23.30;60.80;;;;;;2230467;57;21515;-66
2021/08/02 09:28:30;;;;;;;2.40;1.00;;;23.40;60.60;;;;;;2209837;57;20951;-66
2021/08/02 09:31:01;;;;;;;2.60;1.00;;;23.40;61.40;;;;;;2214183;57;20943;-66
2021/08/02 09:33:41;;;;;;;3.00;1.37;;;23.50;61.40;;;;;;2216527;57;21845;-66
2021/08/02 09:36:07;;;;;;;3.87;1.02;;;23.60;60.90;;;;;;2222959;57;20995;-68
2021/08/02 09:38:34;;;;;;;2.40;1.23;;;23.60;61.20;;;;;;2229485;57;20976;-66
2021/08/02 09:41:00;;;;;;;2.33;1.10;;;23.70;60.50;;;;;;2421731;56;20967;-66
2021/08/02 09:43:28;;;;;;;2.75;1.40;;;23.70;60.30;;;;;;2266369;56;21002;-66
2021/08/02 09:46:03;;;;;;;2.72;1.12;;;23.80;60.50;;;;;;2229477;57;20977;-66
2021/08/02 09:48:48;;;;;;;2.40;1.10;;;23.90;60.90;;;;;;2233837;56;21027;-65
2021/08/02 09:54:41;;;;;;;2.08;1.00;;;24.00;60.10;;;;;;2209302;57;21912;-67
2021/08/02 09:57:08;;;;;;;3.30;1.10;;;24.20;60.30;;;;;;2201833;57;20979;-66
2021/08/02 09:59:43;;;;;;;2.33;1.00;;;24.30;60.00;;;;;;2229177;57;20986;-66
2021/08/02 10:02:10;;;;;;;2.78;0.90;;;24.40;59.60;;;;;;2226184;57;21045;-68
2021/08/02 10:04:36;;;;;;;2.85;0.95;;;24.50;59.70;;;;;;2226520;57;21496;-67
2021/08/02 10:07:10;;;;;;;2.20;1.05;;;24.60;59.70;;;;;;2227142;56;21883;-66
2021/08/02 10:09:37;;;;;;;2.40;1.00;;;24.60;59.10;;;;;;2416329;56;20974;-66
2021/08/02 10:12:04;;;;;;;1.90;1.00;;;24.70;58.60;;;;;;2226486;57;20954;-68
2021/08/02 10:14:31;;;;;;;2.45;0.98;;;24.80;58.50;;;;;;2226372;57;20979;-66
2021/08/02 10:17:05;;;;;;;2.00;0.82;;;24.80;59.30;;;;;;2229625;57;21079;-66
2021/08/02 10:19:40;;;;;;;2.12;0.93;;;24.80;58.50;;;;;;2229873;57;21484;-66
2021/08/02 10:22:06;;;;;;;3.37;1.00;;;24.90;58.40;;;;;;2224942;57;21003;-66
2021/08/02 10:24:44;;;;;;;3.17;1.20;;;25.00;58.80;;;;;;2224245;57;20970;-66
2021/08/02 10:27:10;;;;;;;2.08;1.00;;;25.00;58.10;;;;;;2440348;56;21007;-66
2021/08/02 10:29:43;;;;;;;4.00;1.00;;;25.10;58.10;;;;;;2327057;56;21040;-66
2021/08/02 10:32:27;;;;;;;2.90;1.30;;;25.10;58.00;;;;;;2224014;57;20967;-66
2021/08/02 10:34:55;;;;;;;2.80;1.00;;;25.20;57.10;;;;;;2230173;57;21854;-66
2021/08/02 10:37:34;;;;;;;2.60;1.08;;;25.20;58.00;;;;;;2228797;57;20987;-67
2021/08/02 10:40:11;;;;;;;2.70;1.10;;;25.20;57.50;;;;;;2229660;57;20990;-66
2021/08/02 10:42:50;;;;;;;2.20;1.10;;;25.30;58.10;;;;;;2230426;57;21361;-66
2021/08/02 10:45:27;;;;;;;2.58;1.10;;;25.30;57.30;;;;;;2285175;56;20995;-65
2021/08/02 10:47:53;;;;;;;3.53;1.20;;;25.40;57.80;;;;;;2435120;56;21006;-66
2021/08/02 10:50:30;;;;;;;2.40;1.15;;;25.40;57.40;;;;;;2206800;57;21043;-65
2021/08/02 10:52:56;;;;;;;2.20;1.00;;;25.40;56.90;;;;;;2224669;57;20957;-65
2021/08/02 10:55:29;;;;;;;2.35;1.00;;;25.40;57.10;;;;;;2202461;57;21034;-66
2021/08/02 10:57:59;;;;;;;2.10;1.15;;;25.40;56.40;;;;;;2282433;56;21019;-66
2021/08/02 11:00:25;;;;;;;2.35;1.00;;;25.50;56.50;;;;;;2224128;57;21484;-66
2021/08/02 11:02:56;;;;;;;2.25;0.90;;;25.50;56.90;;;;;;2216911;57;21054;-66
2021/08/02 11:05:23;;;;;;;2.45;1.17;;;25.50;56.80;;;;;;2229000;57;20967;-67
2021/08/02 11:07:49;;;;;;;2.45;0.90;;;25.60;56.70;;;;;;2214898;57;20983;-66
2021/08/02 11:10:16;;;;;;;2.83;0.90;;;25.50;56.80;;;;;;2203854;57;21484;-66
2021/08/02 11:12:46;;;;;;;2.33;1.02;;;25.60;56.50;;;;;;2203911;57;20983;-66
2021/08/02 11:15:12;;;;;;;1.90;0.77;;;25.60;56.10;;;;;;2422862;56;21015;-66
2021/08/02 11:17:49;;;;;;;1.70;0.80;;;25.60;56.20;;;;;;2225203;57;20994;-67
2021/08/02 11:20:16;;;;;;;2.20;0.93;;;25.60;55.30;;;;;;2225200;57;20996;-66
2021/08/02 11:22:55;;;;;;;1.70;0.80;;;25.60;55.40;;;;;;2184539;57;21016;-67
2021/08/02 11:25:26;;;;;;;3.22;1.20;;;25.60;54.60;;;;;;2210320;57;21580;-67
2021/08/02 11:27:53;;;;;;;1.65;0.70;;;25.60;54.30;;;;;;2225412;57;20991;-66
2021/08/02 11:30:20;;;;;;;1.52;0.73;;;25.60;54.80;;;;;;2225718;57;21511;-66
2021/08/02 11:32:49;;;;;;;1.67;0.80;;;25.60;55.00;;;;;;2223480;57;21866;-66
2021/08/02 11:35:16;;;;;;;2.37;0.88;;;25.50;55.30;;;;;;2226159;57;20995;-67
2021/08/02 11:37:50;;;;;;;1.85;0.80;;;25.50;55.00;;;;;;2225987;57;20982;-66
2021/08/02 11:40:17;;;;;;;2.45;1.00;;;25.60;54.70;;;;;;2438202;56;20987;-66
2021/08/02 11:42:50;;;;;;;2.17;1.00;;;25.50;54.70;;;;;;2215556;57;20954;-66
2021/08/02 11:45:17;;;;;;;3.47;1.17;;;25.50;54.70;;;;;;2440214;56;21039;-67
2021/08/02 11:47:45;;;;;;;2.20;0.90;;;25.50;54.70;;;;;;2440910;56;21026;-66
2021/08/02 11:50:14;;;;;;;1.83;0.90;;;25.50;54.30;;;;;;2441275;56;21055;-65
2021/08/02 11:52:45;;;;;;;3.65;1.02;;;25.50;54.00;;;;;;2209392;57;20986;-65
2021/08/02 11:55:14;;;;;;;1.77;0.90;;;25.50;54.10;;;;;;2334500;56;21449;-66
2021/08/02 11:57:41;;;;;;;2.80;0.80;;;25.50;54.50;;;;;;2225889;57;21015;-66
2021/08/02 12:00:18;;;;;;;1.15;0.60;;;25.50;54.30;;;;;;2229289;57;21018;-65
2021/08/02 12:02:46;;;;;;;1.40;0.57;;;25.50;54.30;;;;;;2229171;57;20979;-69
2021/08/02 12:05:26;;;;;;;2.22;0.80;;;25.60;54.80;;;;;;2431991;56;20975;-66
2021/08/02 12:08:09;;;;;;;2.12;0.68;;;25.70;54.30;;;;;;2433279;56;21023;-66
2021/08/02 12:10:37;;;;;;;1.92;0.62;;;25.70;54.30;;;;;;2230863;57;21035;-66
2021/08/02 12:13:11;;;;;;;2.28;0.80;;;25.70;54.60;;;;;;2198449;57;21012;-67
2021/08/02 12:15:58;;;;;;;2.10;0.90;;;25.70;54.60;;;;;;2225894;57;20994;-67
2021/08/02 12:18:26;;;;;;;2.03;0.75;;;25.80;53.50;;;;;;2207596;57;21042;-66
2021/08/02 12:20:53;;;;;;;1.80;0.60;;;25.70;53.90;;;;;;2233770;57;21002;-66
2021/08/02 12:23:24;;;;;;;2.10;0.77;;;25.70;54.10;;;;;;2206657;57;21073;-66
2021/08/02 12:25:50;;;;;;;1.70;0.70;;;25.80;54.30;;;;;;2210355;57;20989;-66
2021/08/02 12:28:17;;;;;;;2.25;0.70;;;25.80;54.70;;;;;;2400734;56;20974;-67
2021/08/02 12:30:43;;;;;;;1.65;0.60;;;25.90;54.90;;;;;;2220582;57;21022;-66
2021/08/02 12:33:11;;;;;;;2.58;0.80;;;25.90;54.80;;;;;;2230026;57;21073;-67
2021/08/02 12:35:41;;;;;;;1.98;0.70;;;26.00;54.70;;;;;;2225250;57;21047;-65
2021/08/02 12:38:08;;;;;;;3.03;0.88;;;26.00;53.90;;;;;;2231162;57;20983;-66
2021/08/02 12:40:38;;;;;;;1.95;0.60;;;26.10;53.60;;;;;;2223313;57;21042;-65
2021/08/02 12:43:04;;;;;;;2.00;0.90;;;26.10;53.30;;;;;;2226685;57;21962;-66
2021/08/02 12:45:31;;;;;;;2.03;0.80;;;26.10;52.80;;;;;;2227224;57;21022;-67
2021/08/02 12:47:58;;;;;;;2.08;0.88;;;26.10;53.10;;;;;;2230890;57;21047;-67
2021/08/02 12:50:27;;;;;;;1.75;0.80;;;26.10;53.70;;;;;;2224751;57;21895;-65
2021/08/02 12:52:53;;;;;;;2.30;0.90;;;26.20;54.50;;;;;;2224495;57;20990;-66
2021/08/02 12:55:21;;;;;;;3.28;0.70;;;26.30;54.00;;;;;;2225746;57;21035;-67
2021/08/02 12:57:47;;;;;;;2.00;0.70;;;26.30;53.90;;;;;;2230242;57;20995;-66
2021/08/02 13:00:14;;;;;;;1.70;0.73;;;26.40;54.00;;;;;;2225720;57;21416;-66
2021/08/02 13:02:42;;;;;;;2.12;0.80;;;26.50;53.90;;;;;;2208475;57;21399;-66
2021/08/02 13:05:09;;;;;;;2.72;0.80;;;26.50;53.50;;;;;;2226499;57;21051;-66
2021/08/02 13:07:35;;;;;;;1.98;0.62;;;26.50;53.20;;;;;;2228725;57;20991;-66
2021/08/02 13:10:04;;;;;;;2.42;0.70;;;26.60;53.30;;;;;;2226281;57;21027;-66
2021/08/02 13:12:33;;;;;;;2.10;0.90;;;26.60;52.90;;;;;;2209712;57;21007;-66
2021/08/02 13:14:59;;;;;;;2.67;0.70;;;26.60;52.80;;;;;;2353768;56;21003;-66